Terminal Aerodrome Forecast
Issued by NWS

Home | Current Version | Previous Version | Graphics & Text | Print | Product List | Glossary On
Versions: 1 2 3 4 5 6 7 8 9 10 11 12 13 14 15 16 17 18 19 20 21 22 23 24 25 26 27 28 29 30 31 32 33
000
FTUS43 KLOT 281501 AAB
TAFGYY
TAF AMD
KGYY 281501Z 2815/2912 36015KT P6SM OVC007
     FM290000 02007KT P6SM FEW009 SCT030 BKN200=

USA.gov is the U.S. government's official web portal to all federal, state and local government web resources and services.